createdAt,value
2023-02-02T00:01:59.898Z,3.60
2023-02-02T00:04:34.917Z,3.68
2023-02-02T00:07:08.379Z,3.62
2023-02-02T00:09:39.039Z,3.58
2023-02-02T00:19:02.368Z,3.44
2023-02-02T00:21:34.458Z,3.29
2023-02-02T00:24:05.299Z,3.39
2023-02-02T00:26:35.669Z,3.37
2023-02-02T00:29:06.339Z,3.42
2023-02-02T00:31:37.025Z,3.61
2023-02-02T00:34:07.980Z,3.63
2023-02-02T00:36:39.495Z,3.60
2023-02-02T00:39:11.138Z,3.56
2023-02-02T00:41:41.135Z,3.59
2023-02-02T00:44:28.335Z,3.60
2023-02-02T00:46:59.660Z,3.65
2023-02-02T00:49:30.258Z,2.92
2023-02-02T00:52:03.957Z,3.83
2023-02-02T00:55:00.404Z,3.85
2023-02-02T00:57:34.416Z,3.87
2023-02-02T01:00:09.881Z,3.75
2023-02-02T01:02:40.735Z,3.84
2023-02-02T01:05:13.130Z,3.84
2023-02-02T01:07:46.873Z,3.94
2023-02-02T01:10:18.425Z,3.70
2023-02-02T01:12:59.136Z,3.66
2023-02-02T01:15:31.328Z,3.78
2023-02-02T01:18:01.475Z,3.83
2023-02-02T01:20:32.501Z,3.87
2023-02-02T01:23:05.214Z,3.97
2023-02-02T01:25:39.295Z,4.03
2023-02-02T01:28:10.216Z,3.95
2023-02-02T01:30:40.262Z,3.97
2023-02-02T01:33:11.082Z,3.99
2023-02-02T01:35:48.861Z,4.11
2023-02-02T01:38:22.035Z,4.15
2023-02-02T01:40:54.395Z,4.17
2023-02-02T01:43:27.338Z,3.72
2023-02-02T01:45:59.478Z,4.44
2023-02-02T01:48:32.261Z,4.31
2023-02-02T01:51:05.895Z,4.50
2023-02-02T01:53:38.319Z,4.44
2023-02-02T01:56:11.754Z,4.53
2023-02-02T01:58:44.456Z,4.74
2023-02-02T02:01:16.353Z,4.86
2023-02-02T02:03:46.655Z,4.91
2023-02-02T02:06:21.740Z,4.90
2023-02-02T02:08:59.334Z,5.04
2023-02-02T02:11:29.938Z,4.99
2023-02-02T02:14:20.099Z,4.22
2023-02-02T02:17:01.814Z,4.08
2023-02-02T02:20:22.834Z,4.88
2023-02-02T02:23:30.353Z,4.98
2023-02-02T02:26:38.368Z,5.05
2023-02-02T02:29:36.373Z,5.05
2023-02-02T02:32:23.370Z,4.97
2023-02-02T02:35:00.794Z,4.63
2023-02-02T02:37:39.711Z,4.87
2023-02-02T02:40:21.300Z,4.54
2023-02-02T02:42:57.476Z,4.91
2023-02-02T02:45:42.614Z,5.02
2023-02-02T02:48:21.496Z,4.91
2023-02-02T02:50:52.073Z,4.92
2023-02-02T02:53:24.995Z,4.98
2023-02-02T02:56:04.915Z,4.85
2023-02-02T02:58:41.577Z,4.73
2023-02-02T03:01:21.623Z,4.68
2023-02-02T03:04:11.861Z,4.55
2023-02-02T03:06:50.477Z,4.43
2023-02-02T03:09:25.540Z,4.53
2023-02-02T03:11:57.532Z,4.97
2023-02-02T03:14:27.553Z,5.09
2023-02-02T03:16:57.615Z,5.06
2023-02-02T03:19:29.270Z,5.08
2023-02-02T03:21:59.754Z,5.08
2023-02-02T03:24:29.833Z,5.12
2023-02-02T03:26:59.913Z,5.17
2023-02-02T03:29:30.758Z,5.36
2023-02-02T03:32:01.134Z,5.14
2023-02-02T03:34:33.216Z,5.46
2023-02-02T03:37:03.354Z,5.46
2023-02-02T03:39:33.294Z,5.33
2023-02-02T03:42:03.374Z,5.43
2023-02-02T03:44:33.415Z,5.47
2023-02-02T03:47:04.073Z,5.50
2023-02-02T03:49:35.753Z,5.55
2023-02-02T03:52:06.714Z,5.55
2023-02-02T03:54:36.775Z,5.59
2023-02-02T03:57:07.233Z,5.60
2023-02-02T03:59:37.736Z,5.46
2023-02-02T04:02:07.816Z,5.54
2023-02-02T04:04:42.434Z,5.62
2023-02-02T04:07:12.855Z,5.59
2023-02-02T04:09:43.053Z,5.55
2023-02-02T04:12:13.175Z,5.35
2023-02-02T04:14:43.294Z,5.51
2023-02-02T04:17:14.276Z,5.61
2023-02-02T04:19:46.378Z,5.59
2023-02-02T04:22:17.454Z,5.60
2023-02-02T04:24:47.994Z,5.52
2023-02-02T04:27:18.374Z,5.53
2023-02-02T06:15:39.239Z,3.88
2023-02-02T06:18:08.520Z,4.33
2023-02-02T06:20:36.830Z,4.17
2023-02-02T06:23:05.434Z,4.22
2023-02-02T06:25:34.409Z,4.15
2023-02-02T06:28:02.888Z,3.75
2023-02-02T06:30:30.965Z,4.03
2023-02-02T06:33:02.223Z,3.93
2023-02-02T06:35:31.243Z,3.87
2023-02-02T06:37:59.577Z,3.85
2023-02-02T06:40:28.141Z,3.79
2023-02-02T06:42:59.842Z,3.70
2023-02-02T06:45:29.001Z,3.40
2023-02-02T06:48:03.676Z,2.70
2023-02-02T06:50:32.647Z,3.65
2023-02-02T06:53:00.895Z,3.60
2023-02-02T06:55:29.079Z,3.63
2023-02-02T06:57:58.801Z,3.38
2023-02-02T07:00:27.957Z,3.53
2023-02-02T07:02:56.618Z,3.61
2023-02-02T07:05:29.219Z,3.76
2023-02-02T07:07:58.469Z,3.59
2023-02-02T07:11:09.505Z,3.57
2023-02-02T07:13:14.962Z,3.64
2023-02-02T07:15:43.230Z,3.69
2023-02-02T07:18:11.470Z,3.79
2023-02-02T07:20:41.016Z,3.62
2023-02-02T07:23:09.218Z,3.85
2023-02-02T07:25:37.406Z,3.72
2023-02-02T07:28:06.266Z,3.51
2023-02-02T07:30:34.436Z,3.75
2023-02-02T07:33:02.637Z,3.68
2023-02-02T07:35:30.839Z,3.72
2023-02-02T07:38:00.437Z,3.75
2023-02-02T07:40:28.671Z,3.79
2023-02-02T07:43:00.678Z,3.88
2023-02-02T07:45:28.867Z,4.02
2023-02-02T07:47:58.291Z,3.99
2023-02-02T07:50:26.916Z,4.18
2023-02-02T07:52:55.372Z,4.16
2023-02-02T07:55:24.961Z,4.19
2023-02-02T07:57:55.595Z,4.27
2023-02-02T08:00:25.132Z,4.27
2023-02-02T08:02:53.691Z,4.18
2023-02-02T08:05:23.188Z,4.31
2023-02-02T08:07:51.581Z,4.28
2023-02-02T08:10:19.940Z,4.18
2023-02-02T08:12:49.594Z,4.44
2023-02-02T08:15:17.831Z,4.53
2023-02-02T08:17:49.973Z,4.52
2023-02-02T08:20:18.264Z,4.44
2023-02-02T08:22:46.518Z,4.56
2023-02-02T08:25:14.706Z,4.59
2023-02-02T08:27:42.891Z,4.57
2023-02-02T08:30:14.111Z,4.59
2023-02-02T08:32:42.281Z,4.51
2023-02-02T08:35:10.705Z,4.50
2023-02-02T08:37:39.018Z,4.68
2023-02-02T08:40:08.622Z,4.69
2023-02-02T08:42:36.766Z,4.79
2023-02-02T08:46:00.465Z,4.44
2023-02-02T08:48:09.536Z,4.74
2023-02-02T08:50:39.965Z,4.59
2023-02-02T08:53:08.074Z,4.59
2023-02-02T08:55:36.238Z,4.62
2023-02-02T08:58:05.401Z,4.37
2023-02-02T09:00:33.586Z,4.70
2023-02-02T09:03:03.131Z,4.56
2023-02-02T09:05:31.283Z,4.78
2023-02-02T09:07:59.537Z,4.73
2023-02-02T09:10:27.933Z,3.95
2023-02-02T09:12:56.245Z,4.87
2023-02-02T09:15:24.658Z,4.86
2023-02-02T09:17:53.764Z,4.57
2023-02-02T09:20:23.323Z,4.87
2023-02-02T09:22:51.468Z,4.86
2023-02-02T09:25:19.601Z,4.68
2023-02-02T09:27:47.758Z,4.87
2023-02-02T09:30:16.348Z,4.85
2023-02-02T09:32:45.730Z,4.88
2023-02-02T09:35:13.886Z,4.96
2023-02-02T09:37:44.322Z,4.94
2023-02-02T09:40:19.392Z,4.88
2023-02-02T09:43:02.820Z,4.52
2023-02-02T09:45:40.429Z,4.84
2023-02-02T09:48:22.123Z,4.06
2023-02-02T09:50:55.579Z,4.88
2023-02-02T09:53:53.009Z,4.76
2023-02-02T09:56:28.425Z,4.51
2023-02-02T09:59:13.767Z,4.81
2023-02-02T10:01:51.328Z,4.90
2023-02-02T10:04:23.527Z,4.86
2023-02-02T10:06:54.535Z,4.69
2023-02-02T10:09:35.882Z,4.78
2023-02-02T10:12:13.551Z,4.77
2023-02-02T10:14:48.599Z,4.76
2023-02-02T10:17:34.567Z,4.72
2023-02-02T10:20:25.973Z,4.75
2023-02-02T10:22:59.307Z,4.81
2023-02-02T10:25:30.401Z,4.77
2023-02-02T10:28:05.999Z,4.74
2023-02-02T10:30:44.074Z,4.75
2023-02-02T10:33:20.375Z,4.80
2023-02-02T10:35:57.752Z,4.90
2023-02-02T10:38:37.896Z,4.93
2023-02-02T10:41:16.892Z,4.94
2023-02-02T10:44:07.462Z,4.96
2023-02-02T10:46:40.949Z,4.99
2023-02-02T10:49:18.121Z,5.02
2023-02-02T10:51:54.530Z,5.07
2023-02-02T10:54:55.035Z,4.72
2023-02-02T10:57:44.125Z,4.66
2023-02-02T11:00:23.072Z,4.81
2023-02-02T11:02:53.028Z,5.09
2023-02-02T11:05:41.308Z,5.08
2023-02-02T11:08:18.075Z,4.90
2023-02-02T11:10:48.555Z,5.07
2023-02-02T11:13:28.391Z,5.10
2023-02-02T11:16:22.030Z,5.21
2023-02-02T11:18:50.833Z,5.24
2023-02-02T11:21:27.034Z,5.23
2023-02-02T11:23:57.977Z,5.28
2023-02-02T11:26:27.031Z,5.20
2023-02-02T11:28:59.981Z,5.06
2023-02-02T11:31:36.356Z,5.28
2023-02-02T11:34:20.373Z,4.77
2023-02-02T11:37:13.934Z,4.66
2023-02-02T11:39:42.642Z,5.62
2023-02-02T11:42:16.325Z,5.72
2023-02-02T11:44:49.515Z,5.80
2023-02-02T11:47:23.476Z,5.94
2023-02-02T11:49:53.031Z,6.01
2023-02-02T11:52:24.840Z,5.92
2023-02-02T11:54:55.981Z,5.91
2023-02-02T11:57:26.487Z,5.97
2023-02-02T12:00:16.457Z,5.20
2023-02-02T12:02:47.626Z,5.98
2023-02-02T12:05:35.409Z,6.01
2023-02-02T12:08:04.921Z,6.01
2023-02-02T12:10:39.601Z,6.01
2023-02-02T12:13:11.305Z,5.95
2023-02-02T12:15:51.065Z,5.90
2023-02-02T12:18:35.843Z,5.85
2023-02-02T12:21:07.350Z,5.83
2023-02-02T12:23:47.615Z,5.86
2023-02-02T12:26:25.241Z,5.97
2023-02-02T12:29:15.155Z,5.84
2023-02-02T12:32:00.325Z,5.73
2023-02-02T12:34:38.825Z,4.91
2023-02-02T12:37:15.570Z,5.70
2023-02-02T12:39:57.718Z,5.62
2023-02-02T12:42:37.287Z,5.54
2023-02-02T12:45:48.282Z,5.55
2023-02-02T12:48:32.913Z,5.52
2023-02-02T12:51:16.807Z,5.33
2023-02-02T12:54:35.025Z,5.55
2023-02-02T12:57:15.980Z,5.43
2023-02-02T13:00:12.846Z,5.23
2023-02-02T13:02:54.720Z,5.43
2023-02-02T13:05:40.453Z,5.38
2023-02-02T13:08:13.061Z,5.44
2023-02-02T13:10:44.080Z,4.52
2023-02-02T13:13:17.721Z,5.43
2023-02-02T13:15:50.007Z,5.27
2023-02-02T13:18:24.791Z,5.36
2023-02-02T13:20:57.744Z,5.48
2023-02-02T13:23:30.390Z,5.48
2023-02-02T13:26:04.417Z,5.48
2023-02-02T13:28:39.378Z,5.49
2023-02-02T13:31:16.682Z,5.33
2023-02-02T13:33:49.638Z,5.39
2023-02-02T13:36:28.672Z,4.13
2023-02-02T13:38:59.746Z,5.07
2023-02-02T13:41:29.239Z,5.10
2023-02-02T13:44:02.802Z,5.16
2023-02-02T13:46:36.116Z,5.03
2023-02-02T13:49:13.282Z,5.06
2023-02-02T13:52:01.519Z,4.77
2023-02-02T13:55:18.815Z,4.94
2023-02-02T13:58:24.937Z,4.98
2023-02-02T14:00:57.802Z,4.81
2023-02-02T14:03:33.900Z,4.62
2023-02-02T14:06:08.906Z,5.10
2023-02-02T14:08:39.212Z,5.02
2023-02-02T14:11:09.439Z,4.99
2023-02-02T14:14:03.544Z,5.11
2023-02-02T14:17:06.345Z,5.07
2023-02-02T14:20:01.955Z,5.11
2023-02-02T14:22:48.609Z,4.21
2023-02-02T14:25:53.507Z,5.10
2023-02-02T14:28:46.386Z,5.04
2023-02-02T14:31:36.273Z,5.04
2023-02-02T14:34:33.759Z,5.04
2023-02-02T14:37:29.654Z,4.86
2023-02-02T14:40:19.247Z,5.21
2023-02-02T14:43:15.644Z,5.29
2023-02-02T14:45:44.111Z,4.97
2023-02-02T14:48:17.513Z,4.97
2023-02-02T14:50:49.805Z,5.04
2023-02-02T14:53:26.683Z,5.04
2023-02-02T14:56:00.736Z,5.03
2023-02-02T14:58:35.477Z,4.81
2023-02-02T15:01:11.902Z,4.92
2023-02-02T15:03:54.222Z,4.72
2023-02-02T15:06:32.464Z,4.81
2023-02-02T15:09:42.475Z,4.58
2023-02-02T15:12:34.118Z,4.68
2023-02-02T15:15:16.656Z,4.56
2023-02-02T15:17:56.126Z,4.60
2023-02-02T15:20:31.062Z,4.71
2023-02-02T15:23:04.584Z,4.57
2023-02-02T15:25:37.538Z,4.64
2023-02-02T15:28:15.644Z,4.37
2023-02-02T15:30:49.797Z,4.42
2023-02-02T15:33:28.695Z,4.50
2023-02-02T15:36:00.138Z,4.39
2023-02-02T15:38:35.661Z,4.33
2023-02-02T15:41:09.426Z,4.30
2023-02-02T15:43:37.970Z,4.27
2023-02-02T15:46:12.908Z,4.26
2023-02-02T15:48:41.270Z,4.26
2023-02-02T15:51:17.512Z,4.20
2023-02-02T15:53:51.955Z,4.13
2023-02-02T15:56:29.423Z,4.03
2023-02-02T15:58:59.961Z,4.05
2023-02-02T16:01:33.529Z,4.01
2023-02-02T16:04:14.604Z,3.93
2023-02-02T16:06:43.373Z,3.91
2023-02-02T16:09:24.078Z,3.88
2023-02-02T16:11:53.219Z,3.89
2023-02-02T16:14:21.869Z,3.73
2023-02-02T16:16:51.594Z,3.64
2023-02-02T16:19:22.917Z,3.31
2023-02-02T16:21:54.986Z,3.59
2023-02-02T16:24:28.008Z,2.87
2023-02-02T16:26:58.939Z,3.54
2023-02-02T16:29:28.386Z,3.55
2023-02-02T16:31:58.673Z,3.09
2023-02-02T16:34:46.753Z,3.31
2023-02-02T16:37:17.688Z,3.42
2023-02-02T16:39:46.105Z,2.97
2023-02-02T16:42:25.621Z,3.29
2023-02-02T16:44:54.069Z,3.06
2023-02-02T16:47:39.997Z,3.05
2023-02-02T16:50:26.355Z,3.24
2023-02-02T16:52:57.157Z,3.20
2023-02-02T16:55:31.545Z,3.14
2023-02-02T16:58:07.958Z,3.08
2023-02-02T17:00:37.061Z,3.04
2023-02-02T17:03:09.703Z,2.95
2023-02-02T17:05:47.194Z,3.14
2023-02-02T17:08:15.585Z,3.09
2023-02-02T17:10:45.240Z,3.09
2023-02-02T17:13:39.395Z,3.07
2023-02-02T17:16:07.936Z,3.02
2023-02-02T17:18:37.574Z,3.07
2023-02-02T17:21:07.849Z,3.04
2023-02-02T17:23:38.893Z,2.74
2023-02-02T17:26:09.451Z,2.89
2023-02-02T17:28:40.202Z,2.91
2023-02-02T17:31:10.526Z,2.89
2023-02-02T17:33:40.993Z,2.71
2023-02-02T17:36:10.050Z,2.87
2023-02-02T17:38:38.724Z,2.89
2023-02-02T17:41:07.471Z,2.85
2023-02-02T17:43:35.678Z,2.83
2023-02-02T17:46:05.093Z,2.46
2023-02-02T17:48:34.468Z,2.75
2023-02-02T17:51:07.260Z,2.74
2023-02-02T17:53:35.514Z,2.86
2023-02-02T17:56:03.607Z,2.68
2023-02-02T17:58:31.881Z,2.39
2023-02-02T18:01:00.265Z,2.92
2023-02-02T18:03:33.921Z,2.92
2023-02-02T18:06:04.119Z,2.93
2023-02-02T18:08:33.434Z,2.93
2023-02-02T18:11:01.635Z,2.90
2023-02-02T18:13:30.042Z,2.77
2023-02-02T18:15:59.955Z,2.82
2023-02-02T18:18:29.841Z,2.83
2023-02-02T18:20:59.065Z,2.74
2023-02-02T18:23:29.203Z,2.25
2023-02-02T18:25:57.505Z,2.73
2023-02-02T18:28:25.712Z,2.78
2023-02-02T18:30:54.044Z,2.82
2023-02-02T18:33:23.533Z,2.85
2023-02-02T18:35:51.840Z,2.95
2023-02-02T18:38:20.027Z,2.92
2023-02-02T18:40:58.060Z,2.89
2023-02-02T18:43:26.369Z,2.81
2023-02-02T18:46:02.161Z,2.79
2023-02-02T18:48:31.455Z,2.85
2023-02-02T18:51:00.234Z,2.82
2023-02-02T18:53:28.640Z,2.83
2023-02-02T18:55:58.747Z,2.88
2023-02-02T18:58:27.756Z,1.48
2023-02-02T19:00:56.028Z,2.95
2023-02-02T19:03:24.322Z,2.86
2023-02-02T19:06:10.042Z,2.89
2023-02-02T19:08:38.304Z,2.60
2023-02-02T19:11:17.981Z,2.87
2023-02-02T19:13:46.469Z,1.88
2023-02-02T19:16:21.588Z,2.74
2023-02-02T19:18:49.945Z,2.89
2023-02-02T19:21:18.298Z,2.96
2023-02-02T19:23:46.788Z,2.04
2023-02-02T19:26:24.873Z,2.96
2023-02-02T19:28:53.574Z,3.00
2023-02-02T19:31:21.912Z,2.95
2023-02-02T19:33:51.534Z,3.00
2023-02-02T19:36:21.405Z,3.01
2023-02-02T19:38:51.500Z,2.97
2023-02-02T19:41:23.137Z,2.85
2023-02-02T19:43:57.126Z,2.95
2023-02-02T19:46:27.564Z,2.77
2023-02-02T19:49:05.657Z,2.91
2023-02-02T19:51:43.078Z,2.27
2023-02-02T19:54:39.108Z,2.80
2023-02-02T19:57:18.377Z,2.86
2023-02-02T19:59:49.023Z,2.84
2023-02-02T20:02:44.780Z,2.88
2023-02-02T20:05:20.921Z,2.87
2023-02-02T20:07:49.692Z,2.82
2023-02-02T20:10:22.491Z,2.88
2023-02-02T20:12:52.763Z,2.67
2023-02-02T20:15:30.297Z,2.90
2023-02-02T20:18:01.127Z,2.89
2023-02-02T20:20:33.017Z,2.91
2023-02-02T20:23:02.321Z,2.81
2023-02-02T20:25:32.427Z,2.90
2023-02-02T20:28:09.689Z,2.66
2023-02-02T20:30:37.849Z,2.80
2023-02-02T20:33:22.143Z,2.83
2023-02-02T20:35:50.559Z,2.82
2023-02-02T20:38:23.169Z,2.89
2023-02-02T20:40:52.325Z,2.90
2023-02-02T20:43:22.427Z,2.47
2023-02-02T20:45:51.223Z,2.97
2023-02-02T20:48:19.537Z,3.00
2023-02-02T20:50:47.988Z,2.99
2023-02-02T20:53:16.703Z,2.99
2023-02-02T20:55:44.988Z,3.03
2023-02-02T20:58:13.454Z,3.06
2023-02-02T21:00:43.171Z,3.10
2023-02-02T21:03:13.344Z,3.19
2023-02-02T21:05:41.510Z,3.21
2023-02-02T21:08:09.781Z,3.18
2023-02-02T21:10:38.031Z,2.93
2023-02-02T21:13:06.314Z,3.17
2023-02-02T21:15:34.525Z,3.27
2023-02-02T21:18:04.501Z,3.30
2023-02-02T21:20:32.984Z,3.23
2023-02-02T21:23:01.208Z,2.95
2023-02-02T21:25:29.425Z,3.11
2023-02-02T21:27:59.712Z,2.93
2023-02-02T21:30:28.499Z,2.98
2023-02-02T21:32:56.977Z,2.98
2023-02-02T21:35:27.481Z,2.66
2023-02-02T21:37:59.189Z,3.04
2023-02-02T21:40:30.451Z,3.02
2023-02-02T21:43:00.654Z,3.10
2023-02-02T21:45:34.803Z,3.06
2023-02-02T21:48:06.642Z,3.05
2023-02-02T21:50:38.502Z,2.96
2023-02-02T21:53:20.171Z,3.04
2023-02-02T21:55:52.301Z,3.02
2023-02-02T21:58:25.695Z,2.91
2023-02-02T22:00:54.863Z,2.85
2023-02-02T22:03:28.445Z,2.66
2023-02-02T22:06:15.101Z,2.86
2023-02-02T22:08:43.328Z,2.61
2023-02-02T22:11:23.061Z,1.29
2023-02-02T22:13:51.380Z,2.47
2023-02-02T22:16:21.676Z,2.32
2023-02-02T22:18:50.054Z,2.47
2023-02-02T22:21:21.189Z,2.57
2023-02-02T22:23:49.466Z,2.57
2023-02-02T22:26:30.995Z,2.57
2023-02-02T22:28:59.210Z,2.65
2023-02-02T22:31:27.537Z,2.62
2023-02-02T22:33:55.818Z,2.66
2023-02-02T22:36:25.473Z,2.41
2023-02-02T22:38:53.642Z,2.57
2023-02-02T22:41:21.862Z,2.66
2023-02-02T22:43:50.059Z,2.64
2023-02-02T22:46:18.244Z,2.67
2023-02-02T22:48:46.502Z,2.57
2023-02-02T22:51:14.753Z,2.62
2023-02-02T22:53:44.344Z,2.52
2023-02-02T22:56:12.545Z,2.63
2023-02-02T22:58:41.032Z,2.80
2023-02-02T23:01:09.530Z,2.67
2023-02-02T23:03:37.753Z,2.79
2023-02-02T23:06:06.047Z,2.81
2023-02-02T23:08:34.664Z,2.80
2023-02-02T23:11:04.447Z,2.82
2023-02-02T23:13:32.583Z,2.84
2023-02-02T23:16:00.803Z,2.64
2023-02-02T23:18:28.899Z,2.66
2023-02-02T23:20:57.043Z,2.77
2023-02-02T23:23:25.342Z,2.82
2023-02-02T23:25:53.406Z,2.75
2023-02-02T23:28:22.994Z,2.70
2023-02-02T23:30:51.735Z,2.82
2023-02-02T23:33:19.896Z,2.81
2023-02-02T23:35:48.056Z,2.81
2023-02-02T23:38:17.925Z,2.64
2023-02-02T23:40:46.315Z,2.56
2023-02-02T23:43:14.427Z,2.61
2023-02-02T23:45:43.932Z,2.52
2023-02-02T23:48:13.165Z,2.47
2023-02-02T23:50:42.043Z,2.40
2023-02-02T23:53:11.590Z,2.40
2023-02-02T23:55:41.727Z,2.42
2023-02-02T23:58:11.371Z,2.38
